sensor_id;sensor_type;location;lat;lon;timestamp;pressure;altitude;pressure_sealevel;temperature;humidity
36242;BME280;22283;42.748;12.732;2024-02-16T00:01:19;98629.50;;;4.61;75.48
36242;BME280;22283;42.748;12.732;2024-02-16T00:06:20;98628.06;;;4.54;75.63
36242;BME280;22283;42.748;12.732;2024-02-16T00:11:20;98631.78;;;4.48;76.38
36242;BME280;22283;42.748;12.732;2024-02-16T00:16:21;98628.78;;;4.35;77.07
36242;BME280;22283;42.748;12.732;2024-02-16T00:21:22;98627.19;;;4.31;77.70
36242;BME280;22283;42.748;12.732;2024-02-16T00:26:22;98632.03;;;4.20;78.06
36242;BME280;22283;42.748;12.732;2024-02-16T00:31:23;98628.91;;;4.10;78.84
36242;BME280;22283;42.748;12.732;2024-02-16T00:36:26;98633.41;;;4.07;79.69
36242;BME280;22283;42.748;12.732;2024-02-16T00:41:26;98625.00;;;3.99;80.11
36242;BME280;22283;42.748;12.732;2024-02-16T00:46:27;98625.00;;;3.99;80.41
36242;BME280;22283;42.748;12.732;2024-02-16T00:51:27;98631.94;;;4.00;80.06
36242;BME280;22283;42.748;12.732;2024-02-16T00:56:30;98611.47;;;3.87;80.52
36242;BME280;22283;42.748;12.732;2024-02-16T01:01:31;98621.19;;;3.84;82.22
36242;BME280;22283;42.748;12.732;2024-02-16T01:06:31;98617.81;;;3.82;82.05
36242;BME280;22283;42.748;12.732;2024-02-16T01:11:32;98616.16;;;3.79;81.72
36242;BME280;22283;42.748;12.732;2024-02-16T01:16:32;98620.72;;;3.74;82.73
36242;BME280;22283;42.748;12.732;2024-02-16T01:21:33;98616.41;;;3.73;83.30
36242;BME280;22283;42.748;12.732;2024-02-16T01:26:34;98616.22;;;3.78;83.72
36242;BME280;22283;42.748;12.732;2024-02-16T01:31:34;98604.09;;;3.75;84.04
36242;BME280;22283;42.748;12.732;2024-02-16T01:36:36;98591.56;;;3.60;84.88
36242;BME280;22283;42.748;12.732;2024-02-16T01:41:40;98588.66;;;3.45;85.67
36242;BME280;22283;42.748;12.732;2024-02-16T01:46:40;98595.78;;;3.64;86.37
36242;BME280;22283;42.748;12.732;2024-02-16T01:51:42;98572.69;;;3.52;86.07
36242;BME280;22283;42.748;12.732;2024-02-16T01:56:43;98571.91;;;3.50;86.26
36242;BME280;22283;42.748;12.732;2024-02-16T02:01:44;98579.09;;;3.44;86.79
36242;BME280;22283;42.748;12.732;2024-02-16T02:06:44;98567.81;;;3.42;88.77
36242;BME280;22283;42.748;12.732;2024-02-16T02:11:45;98575.88;;;3.60;87.49
36242;BME280;22283;42.748;12.732;2024-02-16T02:16:45;98564.16;;;3.70;87.05
36242;BME280;22283;42.748;12.732;2024-02-16T02:21:46;98558.25;;;3.65;87.37
36242;BME280;22283;42.748;12.732;2024-02-16T02:26:46;98554.72;;;3.66;87.95
36242;BME280;22283;42.748;12.732;2024-02-16T02:31:47;98563.34;;;3.68;88.08
36242;BME280;22283;42.748;12.732;2024-02-16T02:36:47;98544.25;;;3.66;87.77
36242;BME280;22283;42.748;12.732;2024-02-16T02:41:49;98541.91;;;3.82;86.38
36242;BME280;22283;42.748;12.732;2024-02-16T02:46:49;98533.56;;;3.94;85.10
36242;BME280;22283;42.748;12.732;2024-02-16T02:51:50;98534.47;;;3.93;85.53
36242;BME280;22283;42.748;12.732;2024-02-16T02:56:50;98524.84;;;3.93;85.73
36242;BME280;22283;42.748;12.732;2024-02-16T03:01:51;98522.47;;;3.87;86.58
36242;BME280;22283;42.748;12.732;2024-02-16T03:06:52;98534.78;;;3.85;87.20
36242;BME280;22283;42.748;12.732;2024-02-16T03:11:52;98525.28;;;3.83;88.08
36242;BME280;22283;42.748;12.732;2024-02-16T03:16:53;98538.31;;;3.84;88.67
36242;BME280;22283;42.748;12.732;2024-02-16T03:21:53;98533.97;;;3.83;87.67
36242;BME280;22283;42.748;12.732;2024-02-16T03:26:54;98526.00;;;3.86;87.84
36242;BME280;22283;42.748;12.732;2024-02-16T03:31:54;98534.66;;;3.88;88.26
36242;BME280;22283;42.748;12.732;2024-02-16T03:36:55;98536.41;;;3.88;87.79
36242;BME280;22283;42.748;12.732;2024-02-16T03:41:55;98535.63;;;3.86;87.58
36242;BME280;22283;42.748;12.732;2024-02-16T03:46:56;98542.63;;;3.85;87.75
36242;BME280;22283;42.748;12.732;2024-02-16T03:51:56;98535.50;;;3.89;87.83
36242;BME280;22283;42.748;12.732;2024-02-16T03:56:57;98535.44;;;3.90;87.72
36242;BME280;22283;42.748;12.732;2024-02-16T04:01:58;98539.28;;;3.82;88.19
36242;BME280;22283;42.748;12.732;2024-02-16T04:06:58;98546.69;;;3.70;89.33
36242;BME280;22283;42.748;12.732;2024-02-16T04:11:59;98556.44;;;3.67;89.95
36242;BME280;22283;42.748;12.732;2024-02-16T04:16:59;98529.25;;;3.48;90.00
36242;BME280;22283;42.748;12.732;2024-02-16T04:22:00;98557.72;;;3.57;90.74
36242;BME280;22283;42.748;12.732;2024-02-16T04:27:01;98546.69;;;3.49;91.31
36242;BME280;22283;42.748;12.732;2024-02-16T04:32:01;98543.38;;;3.43;91.46
36242;BME280;22283;42.748;12.732;2024-02-16T04:37:02;98551.16;;;3.45;91.38
36242;BME280;22283;42.748;12.732;2024-02-16T04:42:03;98548.59;;;3.43;90.59
36242;BME280;22283;42.748;12.732;2024-02-16T04:47:04;98529.41;;;3.44;90.72
36242;BME280;22283;42.748;12.732;2024-02-16T04:52:05;98542.03;;;3.33;90.44
36242;BME280;22283;42.748;12.732;2024-02-16T04:57:06;98546.69;;;3.25;91.11
36242;BME280;22283;42.748;12.732;2024-02-16T05:02:06;98540.75;;;3.20;91.93
36242;BME280;22283;42.748;12.732;2024-02-16T05:07:07;98555.75;;;3.15;92.09
36242;BME280;22283;42.748;12.732;2024-02-16T05:12:07;98527.06;;;3.13;91.98
36242;BME280;22283;42.748;12.732;2024-02-16T05:17:08;98547.34;;;3.30;91.80
36242;BME280;22283;42.748;12.732;2024-02-16T05:22:09;98534.00;;;3.38;90.80
36242;BME280;22283;42.748;12.732;2024-02-16T05:27:10;98531.31;;;3.39;92.07
36242;BME280;22283;42.748;12.732;2024-02-16T05:32:11;98529.41;;;3.44;91.93
36242;BME280;22283;42.748;12.732;2024-02-16T05:37:13;98537.66;;;3.56;92.26
36242;BME280;22283;42.748;12.732;2024-02-16T05:42:15;98529.59;;;3.62;91.51
36242;BME280;22283;42.748;12.732;2024-02-16T05:47:16;98527.53;;;3.70;90.62
36242;BME280;22283;42.748;12.732;2024-02-16T05:52:17;98531.66;;;3.76;88.73
36242;BME280;22283;42.748;12.732;2024-02-16T05:57:17;98535.31;;;3.72;89.30
36242;BME280;22283;42.748;12.732;2024-02-16T06:02:18;98539.09;;;3.64;90.99
36242;BME280;22283;42.748;12.732;2024-02-16T06:07:19;98537.94;;;3.72;92.36
36242;BME280;22283;42.748;12.732;2024-02-16T06:12:19;98536.97;;;3.74;92.71
36242;BME280;22283;42.748;12.732;2024-02-16T06:17:20;98551.56;;;3.80;93.17
36242;BME280;22283;42.748;12.732;2024-02-16T06:22:21;98545.00;;;3.91;92.68
36242;BME280;22283;42.748;12.732;2024-02-16T06:27:22;98543.81;;;4.00;93.20
36242;BME280;22283;42.748;12.732;2024-02-16T06:32:24;98549.28;;;4.16;93.93
36242;BME280;22283;42.748;12.732;2024-02-16T06:37:24;98547.19;;;4.24;94.54
36242;BME280;22283;42.748;12.732;2024-02-16T06:42:25;98554.41;;;4.39;94.44
36242;BME280;22283;42.748;12.732;2024-02-16T06:47:25;98544.31;;;4.51;95.74
36242;BME280;22283;42.748;12.732;2024-02-16T06:52:26;98554.03;;;4.69;96.17
36242;BME280;22283;42.748;12.732;2024-02-16T06:57:27;98548.03;;;4.87;95.10
36242;BME280;22283;42.748;12.732;2024-02-16T07:02:27;98559.25;;;5.10;94.00
36242;BME280;22283;42.748;12.732;2024-02-16T07:07:27;98564.53;;;5.29;93.29
36242;BME280;22283;42.748;12.732;2024-02-16T07:12:28;98563.78;;;5.46;92.02
36242;BME280;22283;42.748;12.732;2024-02-16T07:17:28;98571.03;;;5.78;89.53
36242;BME280;22283;42.748;12.732;2024-02-16T07:22:30;98572.41;;;6.06;84.84
36242;BME280;22283;42.748;12.732;2024-02-16T07:27:31;98575.53;;;6.31;82.09
36242;BME280;22283;42.748;12.732;2024-02-16T07:32:32;98589.34;;;6.54;80.31
36242;BME280;22283;42.748;12.732;2024-02-16T07:37:32;98596.44;;;6.69;78.56
36242;BME280;22283;42.748;12.732;2024-02-16T07:42:33;98599.50;;;7.12;75.02
36242;BME280;22283;42.748;12.732;2024-02-16T07:47:33;98595.78;;;7.16;73.33
36242;BME280;22283;42.748;12.732;2024-02-16T07:52:34;98584.75;;;7.43;71.65
36242;BME280;22283;42.748;12.732;2024-02-16T07:57:34;98592.97;;;7.70;71.28
36242;BME280;22283;42.748;12.732;2024-02-16T08:02:35;98583.19;;;7.87;70.52
36242;BME280;22283;42.748;12.732;2024-02-16T08:07:35;98598.53;;;7.97;70.28
36242;BME280;22283;42.748;12.732;2024-02-16T08:12:36;98602.00;;;7.81;70.58
36242;BME280;22283;42.748;12.732;2024-02-16T08:17:37;98598.69;;;7.94;71.66
36242;BME280;22283;42.748;12.732;2024-02-16T08:22:37;98594.69;;;7.86;71.64
36242;BME280;22283;42.748;12.732;2024-02-16T08:27:38;98600.63;;;7.74;72.49
36242;BME280;22283;42.748;12.732;2024-02-16T08:32:39;98597.75;;;7.95;71.06
36242;BME280;22283;42.748;12.732;2024-02-16T08:37:39;98605.91;;;8.06;70.14
36242;BME280;22283;42.748;12.732;2024-02-16T08:42:43;98608.53;;;8.06;70.92
36242;BME280;22283;42.748;12.732;2024-02-16T08:47:44;98611.75;;;8.11;69.90
36242;BME280;22283;42.748;12.732;2024-02-16T08:52:44;98606.59;;;8.25;67.62
36242;BME280;22283;42.748;12.732;2024-02-16T08:57:45;98613.72;;;8.23;68.48
36242;BME280;22283;42.748;12.732;2024-02-16T09:02:47;98617.25;;;8.40;68.12
36242;BME280;22283;42.748;12.732;2024-02-16T09:07:48;98605.53;;;8.75;67.40
36242;BME280;22283;42.748;12.732;2024-02-16T09:12:49;98605.06;;;9.13;66.83
36242;BME280;22283;42.748;12.732;2024-02-16T09:17:49;98611.50;;;9.38;65.54
36242;BME280;22283;42.748;12.732;2024-02-16T09:22:50;98612.81;;;9.45;64.60
36242;BME280;22283;42.748;12.732;2024-02-16T09:27:50;98603.97;;;9.60;62.97
36242;BME280;22283;42.748;12.732;2024-02-16T09:32:51;98607.16;;;9.79;61.52
36242;BME280;22283;42.748;12.732;2024-02-16T09:37:52;98607.88;;;10.10;57.34
36242;BME280;22283;42.748;12.732;2024-02-16T09:42:53;98609.97;;;10.05;59.86
36242;BME280;22283;42.748;12.732;2024-02-16T09:47:54;98623.16;;;10.19;58.04
36242;BME280;22283;42.748;12.732;2024-02-16T09:52:56;98615.81;;;10.51;58.95
36242;BME280;22283;42.748;12.732;2024-02-16T09:58:01;98625.13;;;10.84;58.44
36242;BME280;22283;42.748;12.732;2024-02-16T10:03:02;98618.38;;;10.93;58.47
36242;BME280;22283;42.748;12.732;2024-02-16T10:08:11;98612.50;;;11.27;58.49
36242;BME280;22283;42.748;12.732;2024-02-16T10:13:12;98613.16;;;11.69;57.64
36242;BME280;22283;42.748;12.732;2024-02-16T10:18:13;98606.91;;;11.70;56.84
36242;BME280;22283;42.748;12.732;2024-02-16T10:23:14;98602.84;;;12.03;56.46
36242;BME280;22283;42.748;12.732;2024-02-16T10:28:15;98610.06;;;12.01;56.39
36242;BME280;22283;42.748;12.732;2024-02-16T10:33:17;98595.81;;;12.39;55.59
36242;BME280;22283;42.748;12.732;2024-02-16T10:38:18;98602.34;;;12.94;54.73
36242;BME280;22283;42.748;12.732;2024-02-16T10:43:20;98583.69;;;12.71;52.90
36242;BME280;22283;42.748;12.732;2024-02-16T10:48:21;98591.59;;;12.60;50.33
36242;BME280;22283;42.748;12.732;2024-02-16T10:53:26;98592.28;;;12.75;48.69
36242;BME280;22283;42.748;12.732;2024-02-16T10:58:29;98585.78;;;12.79;48.17
36242;BME280;22283;42.748;12.732;2024-02-16T11:03:31;98576.31;;;12.99;47.18
36242;BME280;22283;42.748;12.732;2024-02-16T11:08:38;98580.88;;;13.32;47.12
36242;BME280;22283;42.748;12.732;2024-02-16T11:13:39;98569.56;;;13.86;45.32
36242;BME280;22283;42.748;12.732;2024-02-16T11:18:42;98563.13;;;14.00;44.18
36242;BME280;22283;42.748;12.732;2024-02-16T11:23:46;98560.97;;;13.94;43.50
36242;BME280;22283;42.748;12.732;2024-02-16T11:28:49;98557.53;;;14.14;43.36
36242;BME280;22283;42.748;12.732;2024-02-16T11:33:50;98553.25;;;14.34;43.92
36242;BME280;22283;42.748;12.732;2024-02-16T11:38:51;98539.81;;;14.36;43.54
36242;BME280;22283;42.748;12.732;2024-02-16T11:43:59;98543.28;;;14.80;43.14
36242;BME280;22283;42.748;12.732;2024-02-16T11:49:06;98531.69;;;15.02;43.16
36242;BME280;22283;42.748;12.732;2024-02-16T11:54:06;98533.16;;;15.15;43.34
36242;BME280;22283;42.748;12.732;2024-02-16T11:59:08;98519.31;;;15.21;43.62
36242;BME280;22283;42.748;12.732;2024-02-16T12:04:19;98523.09;;;14.98;42.96
36242;BME280;22283;42.748;12.732;2024-02-16T12:09:20;98522.91;;;14.90;43.02
36242;BME280;22283;42.748;12.732;2024-02-16T12:14:22;98523.41;;;14.84;43.78
36242;BME280;22283;42.748;12.732;2024-02-16T12:19:23;98515.63;;;14.92;43.21
36242;BME280;22283;42.748;12.732;2024-02-16T12:24:24;98517.53;;;15.01;42.16
36242;BME280;22283;42.748;12.732;2024-02-16T12:29:25;98501.81;;;15.29;41.55
36242;BME280;22283;42.748;12.732;2024-02-16T12:34:25;98496.97;;;15.13;40.47
36242;BME280;22283;42.748;12.732;2024-02-16T12:39:26;98488.91;;;15.03;39.52
36242;BME280;22283;42.748;12.732;2024-02-16T12:44:27;98488.97;;;14.92;39.60
36242;BME280;22283;42.748;12.732;2024-02-16T12:49:27;98483.94;;;14.89;40.68
36242;BME280;22283;42.748;12.732;2024-02-16T12:54:27;98483.13;;;14.98;41.33
36242;BME280;22283;42.748;12.732;2024-02-16T12:59:28;98479.38;;;14.80;40.80
36242;BME280;22283;42.748;12.732;2024-02-16T13:04:29;98484.38;;;14.73;40.87
36242;BME280;22283;42.748;12.732;2024-02-16T13:09:32;98478.72;;;14.66;40.93
36242;BME280;22283;42.748;12.732;2024-02-16T13:14:33;98476.94;;;14.76;40.62
36242;BME280;22283;42.748;12.732;2024-02-16T13:19:33;98461.06;;;14.86;40.06
36242;BME280;22283;42.748;12.732;2024-02-16T13:24:34;98472.31;;;15.20;39.25
36242;BME280;22283;42.748;12.732;2024-02-16T13:29:35;98463.13;;;15.44;39.49
36242;BME280;22283;42.748;12.732;2024-02-16T13:34:36;98467.41;;;15.56;39.74
36242;BME280;22283;42.748;12.732;2024-02-16T13:39:36;98455.69;;;15.68;40.55
36242;BME280;22283;42.748;12.732;2024-02-16T13:44:37;98465.63;;;15.66;40.36
36242;BME280;22283;42.748;12.732;2024-02-16T13:49:38;98466.47;;;15.67;38.78
36242;BME280;22283;42.748;12.732;2024-02-16T13:54:38;98473.00;;;15.93;39.12
36242;BME280;22283;42.748;12.732;2024-02-16T13:59:39;98467.25;;;15.98;38.54
36242;BME280;22283;42.748;12.732;2024-02-16T14:04:39;98468.41;;;16.05;36.58
36242;BME280;22283;42.748;12.732;2024-02-16T14:09:40;98458.84;;;15.93;37.06
36242;BME280;22283;42.748;12.732;2024-02-16T14:14:40;98457.69;;;15.86;37.41
36242;BME280;22283;42.748;12.732;2024-02-16T14:19:41;98474.22;;;15.80;38.56
36242;BME280;22283;42.748;12.732;2024-02-16T14:24:41;98456.81;;;15.76;39.62
36242;BME280;22283;42.748;12.732;2024-02-16T14:29:42;98460.53;;;15.63;39.74
36242;BME280;22283;42.748;12.732;2024-02-16T14:34:42;98459.53;;;15.55;39.90
36242;BME280;22283;42.748;12.732;2024-02-16T14:39:45;98463.72;;;15.47;40.83
36242;BME280;22283;42.748;12.732;2024-02-16T14:44:47;98463.88;;;15.46;41.22
36242;BME280;22283;42.748;12.732;2024-02-16T14:49:47;98459.22;;;15.48;41.33
36242;BME280;22283;42.748;12.732;2024-02-16T14:54:49;98463.13;;;15.34;42.17
36242;BME280;22283;42.748;12.732;2024-02-16T14:59:51;98460.84;;;15.30;42.16
36242;BME280;22283;42.748;12.732;2024-02-16T15:04:55;98460.84;;;15.30;42.27
36242;BME280;22283;42.748;12.732;2024-02-16T15:09:56;98463.94;;;15.25;43.09
36242;BME280;22283;42.748;12.732;2024-02-16T15:14:57;98464.66;;;15.06;43.13
36242;BME280;22283;42.748;12.732;2024-02-16T15:19:59;98462.81;;;14.97;44.26
36242;BME280;22283;42.748;12.732;2024-02-16T15:25:03;98464.56;;;14.87;46.12
36242;BME280;22283;42.748;12.732;2024-02-16T15:30:04;98449.63;;;14.74;46.84
36242;BME280;22283;42.748;12.732;2024-02-16T15:35:05;98475.06;;;14.67;46.87
36242;BME280;22283;42.748;12.732;2024-02-16T15:40:08;98460.28;;;14.54;46.72
36242;BME280;22283;42.748;12.732;2024-02-16T15:45:09;98471.94;;;14.41;46.16
36242;BME280;22283;42.748;12.732;2024-02-16T15:50:10;98467.38;;;14.21;46.36
36242;BME280;22283;42.748;12.732;2024-02-16T15:55:10;98478.97;;;13.99;47.11
36242;BME280;22283;42.748;12.732;2024-02-16T16:00:12;98465.25;;;13.71;47.39
36242;BME280;22283;42.748;12.732;2024-02-16T16:05:12;98467.69;;;13.41;49.19
36242;BME280;22283;42.748;12.732;2024-02-16T16:10:14;98488.66;;;13.21;50.99
36242;BME280;22283;42.748;12.732;2024-02-16T16:15:16;98485.63;;;12.92;54.22
36242;BME280;22283;42.748;12.732;2024-02-16T16:20:17;98485.31;;;12.62;56.80
36242;BME280;22283;42.748;12.732;2024-02-16T16:25:18;98482.19;;;12.33;59.67
36242;BME280;22283;42.748;12.732;2024-02-16T16:30:18;98482.16;;;11.97;62.54
36242;BME280;22283;42.748;12.732;2024-02-16T16:35:19;98478.69;;;11.71;63.92
36242;BME280;22283;42.748;12.732;2024-02-16T16:40:19;98478.56;;;11.49;65.07
36242;BME280;22283;42.748;12.732;2024-02-16T16:45:20;98495.09;;;11.40;66.09
36242;BME280;22283;42.748;12.732;2024-02-16T16:50:21;98499.56;;;11.39;67.65
36242;BME280;22283;42.748;12.732;2024-02-16T16:55:24;98503.16;;;11.38;68.70
36242;BME280;22283;42.748;12.732;2024-02-16T17:00:25;98510.69;;;11.31;69.48
36242;BME280;22283;42.748;12.732;2024-02-16T17:05:26;98521.59;;;11.27;69.02
36242;BME280;22283;42.748;12.732;2024-02-16T17:10:27;98505.50;;;11.04;69.11
36242;BME280;22283;42.748;12.732;2024-02-16T17:15:28;98511.97;;;10.88;69.47
36242;BME280;22283;42.748;12.732;2024-02-16T17:20:32;98524.34;;;10.74;69.37
36242;BME280;22283;42.748;12.732;2024-02-16T17:25:34;98513.09;;;10.58;67.75
36242;BME280;22283;42.748;12.732;2024-02-16T17:30:35;98522.94;;;10.69;68.17
36242;BME280;22283;42.748;12.732;2024-02-16T17:35:36;98508.19;;;10.52;69.27
36242;BME280;22283;42.748;12.732;2024-02-16T17:40:38;98535.28;;;10.43;69.62
36242;BME280;22283;42.748;12.732;2024-02-16T17:45:39;98534.16;;;10.32;70.69
36242;BME280;22283;42.748;12.732;2024-02-16T17:50:39;98531.09;;;10.12;71.81
36242;BME280;22283;42.748;12.732;2024-02-16T17:55:40;98549.91;;;10.07;72.58
36242;BME280;22283;42.748;12.732;2024-02-16T18:00:41;98552.03;;;9.88;72.95
36242;BME280;22283;42.748;12.732;2024-02-16T18:05:41;98554.91;;;9.70;73.13
36242;BME280;22283;42.748;12.732;2024-02-16T18:10:42;98561.69;;;9.60;72.17
36242;BME280;22283;42.748;12.732;2024-02-16T18:15:42;98564.16;;;9.49;71.89
36242;BME280;22283;42.748;12.732;2024-02-16T18:20:44;98568.09;;;9.42;70.04
36242;BME280;22283;42.748;12.732;2024-02-16T18:25:44;98578.88;;;9.39;70.59
36242;BME280;22283;42.748;12.732;2024-02-16T18:30:45;98563.75;;;9.26;71.40
36242;BME280;22283;42.748;12.732;2024-02-16T18:35:45;98581.28;;;9.13;72.50
36242;BME280;22283;42.748;12.732;2024-02-16T18:40:46;98574.88;;;9.03;72.79
36242;BME280;22283;42.748;12.732;2024-02-16T18:45:47;98569.06;;;8.82;72.48
36242;BME280;22283;42.748;12.732;2024-02-16T18:50:47;98584.78;;;8.69;73.11
36242;BME280;22283;42.748;12.732;2024-02-16T18:55:50;98585.25;;;8.46;72.86
36242;BME280;22283;42.748;12.732;2024-02-16T19:00:50;98594.84;;;8.47;71.98
36242;BME280;22283;42.748;12.732;2024-02-16T19:05:51;98589.94;;;8.41;71.54
36242;BME280;22283;42.748;12.732;2024-02-16T19:10:52;98589.25;;;8.21;72.53
36242;BME280;22283;42.748;12.732;2024-02-16T19:15:55;98611.44;;;8.01;72.47
36242;BME280;22283;42.748;12.732;2024-02-16T19:20:56;98597.41;;;8.01;72.50
36242;BME280;22283;42.748;12.732;2024-02-16T19:25:57;98600.78;;;7.87;73.23
36242;BME280;22283;42.748;12.732;2024-02-16T19:30:59;98595.19;;;7.77;72.93
36242;BME280;22283;42.748;12.732;2024-02-16T19:35:59;98594.63;;;7.55;73.92
36242;BME280;22283;42.748;12.732;2024-02-16T19:41:01;98615.84;;;7.52;73.20
36242;BME280;22283;42.748;12.732;2024-02-16T19:46:02;98615.41;;;7.44;73.17
36242;BME280;22283;42.748;12.732;2024-02-16T19:51:03;98611.03;;;7.27;72.37
36242;BME280;22283;42.748;12.732;2024-02-16T19:56:04;98619.19;;;7.22;71.60
36242;BME280;22283;42.748;12.732;2024-02-16T20:01:05;98610.97;;;7.11;72.18
36242;BME280;22283;42.748;12.732;2024-02-16T20:06:05;98606.34;;;6.99;71.30
36242;BME280;22283;42.748;12.732;2024-02-16T20:11:06;98627.16;;;7.03;70.84
36242;BME280;22283;42.748;12.732;2024-02-16T20:16:08;98629.72;;;6.87;70.62
36242;BME280;22283;42.748;12.732;2024-02-16T20:21:10;98631.53;;;6.68;70.92
36242;BME280;22283;42.748;12.732;2024-02-16T20:26:12;98640.84;;;6.58;71.81
36242;BME280;22283;42.748;12.732;2024-02-16T20:31:13;98652.09;;;6.60;71.42
36242;BME280;22283;42.748;12.732;2024-02-16T20:36:14;98650.88;;;6.50;71.07
36242;BME280;22283;42.748;12.732;2024-02-16T20:41:18;98649.63;;;6.57;68.09
36242;BME280;22283;42.748;12.732;2024-02-16T20:46:19;98650.56;;;6.56;67.53
36242;BME280;22283;42.748;12.732;2024-02-16T20:51:19;98663.53;;;6.42;67.11
36242;BME280;22283;42.748;12.732;2024-02-16T20:56:20;98678.38;;;6.24;67.56
36242;BME280;22283;42.748;12.732;2024-02-16T21:01:20;98665.91;;;6.10;67.66
36242;BME280;22283;42.748;12.732;2024-02-16T21:06:21;98654.00;;;6.01;68.58
36242;BME280;22283;42.748;12.732;2024-02-16T21:11:21;98659.69;;;5.92;69.14
36242;BME280;22283;42.748;12.732;2024-02-16T21:16:22;98680.25;;;5.82;69.54
36242;BME280;22283;42.748;12.732;2024-02-16T21:21:22;98676.97;;;5.77;69.62
36242;BME280;22283;42.748;12.732;2024-02-16T21:26:25;98674.63;;;5.71;69.72
36242;BME280;22283;42.748;12.732;2024-02-16T21:31:26;98678.22;;;5.68;69.10
36242;BME280;22283;42.748;12.732;2024-02-16T21:36:27;98686.19;;;5.67;68.73
36242;BME280;22283;42.748;12.732;2024-02-16T21:41:27;98682.00;;;5.63;67.94
36242;BME280;22283;42.748;12.732;2024-02-16T21:46:32;98691.44;;;5.67;67.69
36242;BME280;22283;42.748;12.732;2024-02-16T21:51:35;98686.31;;;5.64;67.49
36242;BME280;22283;42.748;12.732;2024-02-16T21:56:36;98691.50;;;5.45;68.67
36242;BME280;22283;42.748;12.732;2024-02-16T22:01:36;98692.53;;;5.42;67.74
36242;BME280;22283;42.748;12.732;2024-02-16T22:06:37;98693.63;;;5.37;67.03
36242;BME280;22283;42.748;12.732;2024-02-16T22:11:37;98705.09;;;5.34;66.78
36242;BME280;22283;42.748;12.732;2024-02-16T22:16:38;98703.19;;;5.38;68.41
36242;BME280;22283;42.748;12.732;2024-02-16T22:21:39;98706.72;;;5.37;69.44
36242;BME280;22283;42.748;12.732;2024-02-16T22:26:40;98705.56;;;5.24;70.01
36242;BME280;22283;42.748;12.732;2024-02-16T22:31:41;98702.88;;;5.25;69.33
36242;BME280;22283;42.748;12.732;2024-02-16T22:36:42;98703.25;;;5.16;69.73
36242;BME280;22283;42.748;12.732;2024-02-16T22:41:43;98711.31;;;5.11;70.19
36242;BME280;22283;42.748;12.732;2024-02-16T22:46:44;98708.50;;;4.96;71.10
36242;BME280;22283;42.748;12.732;2024-02-16T22:51:45;98705.13;;;4.92;71.90
36242;BME280;22283;42.748;12.732;2024-02-16T22:56:45;98707.88;;;4.89;72.13
36242;BME280;22283;42.748;12.732;2024-02-16T23:01:46;98711.06;;;4.75;72.46
36242;BME280;22283;42.748;12.732;2024-02-16T23:06:46;98710.47;;;4.68;72.60
36242;BME280;22283;42.748;12.732;2024-02-16T23:11:47;98716.31;;;4.75;72.26
36242;BME280;22283;42.748;12.732;2024-02-16T23:16:47;98710.19;;;4.75;72.45
36242;BME280;22283;42.748;12.732;2024-02-16T23:21:48;98717.28;;;4.73;72.05
36242;BME280;22283;42.748;12.732;2024-02-16T23:26:49;98721.34;;;4.58;72.35
36242;BME280;22283;42.748;12.732;2024-02-16T23:31:49;98715.69;;;4.47;72.59
36242;BME280;22283;42.748;12.732;2024-02-16T23:36:50;98727.16;;;4.44;73.30
36242;BME280;22283;42.748;12.732;2024-02-16T23:41:50;98726.97;;;4.49;73.69
36242;BME280;22283;42.748;12.732;2024-02-16T23:46:51;98723.69;;;4.43;72.99
36242;BME280;22283;42.748;12.732;2024-02-16T23:51:53;98724.66;;;4.41;73.59
36242;BME280;22283;42.748;12.732;2024-02-16T23:56:53;98739.25;;;4.47;73.51
